createdAt,value
2023-04-17T00:02:00.838Z,11.57
2023-04-17T00:04:27.178Z,11.64
2023-04-17T00:06:53.640Z,11.63
2023-04-17T00:09:19.710Z,11.54
2023-04-17T00:11:46.094Z,11.54
2023-04-17T00:14:12.197Z,11.51
2023-04-17T00:16:38.714Z,11.39
2023-04-17T00:19:04.879Z,11.24
2023-04-17T00:21:31.463Z,11.11
2023-04-17T00:23:57.712Z,11.17
2023-04-17T00:26:24.061Z,11.17
2023-04-17T00:28:51.098Z,11.16
2023-04-17T00:31:17.474Z,11.08
2023-04-17T00:33:43.631Z,11.02
2023-04-17T00:36:12.728Z,11.14
2023-04-17T00:38:39.233Z,11.20
2023-04-17T00:41:05.562Z,11.10
2023-04-17T00:43:31.724Z,11.12
2023-04-17T00:45:58.404Z,11.14
2023-04-17T00:48:24.722Z,11.07
2023-04-17T00:50:52.182Z,11.11
2023-04-17T00:53:18.627Z,11.04
2023-04-17T00:55:49.844Z,11.18
2023-04-17T00:58:15.989Z,11.27
2023-04-17T01:00:42.437Z,11.33
2023-04-17T01:03:09.690Z,11.31
2023-04-17T01:05:37.593Z,11.45
2023-04-17T01:08:04.195Z,11.43
2023-04-17T01:10:30.624Z,11.56
2023-04-17T01:13:04.192Z,11.57
2023-04-17T01:15:32.084Z,11.51
2023-04-17T01:17:58.571Z,11.50
2023-04-17T01:20:30.290Z,11.60
2023-04-17T01:22:57.764Z,11.54
2023-04-17T01:25:25.277Z,11.65
2023-04-17T01:27:51.636Z,11.54
2023-04-17T01:30:18.449Z,11.51
2023-04-17T01:33:06.665Z,11.40
2023-04-17T01:35:33.082Z,11.27
2023-04-17T01:37:59.247Z,11.27
2023-04-17T01:40:25.643Z,11.26
2023-04-17T01:42:51.787Z,11.41
2023-04-17T01:45:18.346Z,11.38
2023-04-17T01:47:44.811Z,11.35
2023-04-17T01:50:11.838Z,11.42
2023-04-17T01:52:39.034Z,11.43
2023-04-17T01:55:06.138Z,11.38
2023-04-17T01:57:32.574Z,11.44
2023-04-17T01:59:58.969Z,11.40
2023-04-17T02:02:25.419Z,11.49
2023-04-17T02:04:51.869Z,11.49
2023-04-17T02:07:18.026Z,11.51
2023-04-17T02:09:44.635Z,11.51
2023-04-17T02:12:10.708Z,11.51
2023-04-17T02:14:37.059Z,11.54
2023-04-17T02:17:03.445Z,11.60
2023-04-17T02:19:32.366Z,11.46
2023-04-17T02:22:02.122Z,11.47
2023-04-17T02:24:30.740Z,11.34
2023-04-17T02:26:59.649Z,11.40
2023-04-17T02:29:26.199Z,11.42
2023-04-17T02:31:52.688Z,11.41
2023-04-17T02:34:19.141Z,11.42
2023-04-17T02:36:47.398Z,11.37
2023-04-17T02:39:14.036Z,11.41
2023-04-17T02:41:41.014Z,11.44
2023-04-17T02:44:08.649Z,11.08
2023-04-17T02:46:34.947Z,10.95
2023-04-17T02:49:01.889Z,10.92
2023-04-17T02:51:28.269Z,10.90
2023-04-17T02:53:54.823Z,10.79
2023-04-17T02:56:21.100Z,10.69
2023-04-17T02:58:47.631Z,10.68
2023-04-17T03:01:14.078Z,10.80
2023-04-17T03:03:44.385Z,10.71
2023-04-17T03:06:13.088Z,10.56
2023-04-17T03:08:39.563Z,10.51
2023-04-17T03:11:05.922Z,10.50
2023-04-17T03:13:35.658Z,10.49
2023-04-17T03:16:02.759Z,10.55
2023-04-17T03:18:30.232Z,10.54
2023-04-17T03:20:57.548Z,10.55
2023-04-17T03:23:24.281Z,10.58
2023-04-17T03:25:50.419Z,10.51
2023-04-17T03:28:17.733Z,11.26
2023-04-17T03:30:44.138Z,11.10
2023-04-17T03:33:10.803Z,11.13
2023-04-17T03:35:37.105Z,11.05
2023-04-17T03:38:06.778Z,10.52
2023-04-17T03:40:33.778Z,10.39
2023-04-17T03:43:00.830Z,10.36
2023-04-17T03:45:27.203Z,10.42
2023-04-17T03:47:53.879Z,10.41
2023-04-17T03:50:20.354Z,10.42
2023-04-17T03:52:53.932Z,10.41
2023-04-17T03:55:20.490Z,10.27
2023-04-17T03:57:50.341Z,11.05
2023-04-17T04:00:18.189Z,10.33
2023-04-17T04:02:56.175Z,10.22
2023-04-17T04:05:26.740Z,10.30
2023-04-17T04:07:53.726Z,10.29
2023-04-17T04:10:26.525Z,10.33
2023-04-17T04:12:54.448Z,10.33
2023-04-17T04:15:20.618Z,10.36
2023-04-17T04:17:52.268Z,10.33
2023-04-17T04:20:18.545Z,10.35
2023-04-17T04:22:45.347Z,10.26
2023-04-17T04:25:12.298Z,10.26
2023-04-17T04:27:49.924Z,10.29
2023-04-17T04:30:24.695Z,10.30
2023-04-17T04:32:55.375Z,10.30
2023-04-17T04:35:29.786Z,10.33
2023-04-17T04:38:02.146Z,10.36
2023-04-17T04:40:37.317Z,10.40
2023-04-17T04:43:06.044Z,10.39
2023-04-17T04:45:39.413Z,10.24
2023-04-17T04:48:05.962Z,10.25
2023-04-17T04:50:32.352Z,10.15
2023-04-17T04:52:58.884Z,10.19
2023-04-17T04:55:37.192Z,10.09
2023-04-17T04:58:04.736Z,10.13
2023-04-17T05:00:31.469Z,10.44
2023-04-17T05:02:59.909Z,10.05
2023-04-17T05:05:28.061Z,10.09
2023-04-17T05:07:55.253Z,10.16
2023-04-17T05:10:25.311Z,10.09
2023-04-17T05:12:57.732Z,10.08
2023-04-17T05:15:23.870Z,10.14
2023-04-17T05:17:50.549Z,10.09
2023-04-17T05:20:18.033Z,10.12
2023-04-17T05:22:49.399Z,10.10
2023-04-17T05:25:15.967Z,10.48
2023-04-17T05:27:42.715Z,10.70
2023-04-17T05:30:11.381Z,10.82
2023-04-17T05:32:37.996Z,10.72
2023-04-17T05:35:27.574Z,10.94
2023-04-17T05:37:55.404Z,10.98
2023-04-17T05:40:21.948Z,10.98
2023-04-17T05:42:49.301Z,10.98
2023-04-17T05:45:17.232Z,11.25
2023-04-17T05:47:44.039Z,11.81
2023-04-17T05:50:10.310Z,11.26
2023-04-17T05:52:39.463Z,11.36
2023-04-17T05:55:08.477Z,11.60
2023-04-17T05:57:35.166Z,11.32
2023-04-17T06:00:07.816Z,11.85
2023-04-17T06:02:42.336Z,11.50
2023-04-17T06:05:12.443Z,11.54
2023-04-17T06:07:39.720Z,11.69
2023-04-17T06:10:08.258Z,11.81
2023-04-17T06:12:35.268Z,11.53
2023-04-17T06:15:08.982Z,11.52
2023-04-17T06:17:36.878Z,11.60
2023-04-17T06:20:09.564Z,11.78
2023-04-17T06:22:36.884Z,12.40
2023-04-17T06:25:03.778Z,12.21
2023-04-17T06:27:30.880Z,12.18
2023-04-17T06:29:57.032Z,11.92
2023-04-17T06:32:23.723Z,12.40
2023-04-17T06:34:58.976Z,11.98
2023-04-17T06:37:43.974Z,11.59
2023-04-17T06:40:11.611Z,11.81
2023-04-17T06:42:38.086Z,11.83
2023-04-17T06:45:09.262Z,11.88
2023-04-17T06:47:36.887Z,11.76
2023-04-17T06:50:04.875Z,11.82
2023-04-17T06:52:31.798Z,11.51
2023-04-17T06:54:58.819Z,11.47
2023-04-17T06:57:25.658Z,11.58
2023-04-17T06:59:52.006Z,11.61
2023-04-17T07:02:19.120Z,12.05
2023-04-17T07:04:45.949Z,12.26
2023-04-17T07:07:12.404Z,12.13
2023-04-17T07:09:38.486Z,11.94
2023-04-17T07:12:04.928Z,11.98
2023-04-17T07:14:31.352Z,12.09
2023-04-17T07:16:57.851Z,12.03
2023-04-17T07:19:24.200Z,12.01
2023-04-17T07:21:51.196Z,11.92
2023-04-17T07:24:17.300Z,11.84
2023-04-17T07:26:44.412Z,11.90
2023-04-17T07:29:10.792Z,11.77
2023-04-17T07:31:37.999Z,11.86
2023-04-17T07:34:04.494Z,11.74
2023-04-17T07:36:31.018Z,11.68
2023-04-17T07:38:57.145Z,11.22
2023-04-17T07:41:23.494Z,11.24
2023-04-17T07:43:52.339Z,11.27
2023-04-17T07:46:18.753Z,11.16
2023-04-17T07:48:45.710Z,11.40
2023-04-17T07:51:12.058Z,11.65
2023-04-17T07:53:38.428Z,11.67
2023-04-17T07:56:05.742Z,11.54
2023-04-17T07:58:34.856Z,11.06
2023-04-17T08:01:04.764Z,11.56
2023-04-17T08:03:31.461Z,11.28
2023-04-17T08:05:58.306Z,11.41
2023-04-17T08:08:24.562Z,11.74
2023-04-17T08:10:51.420Z,11.69
2023-04-17T08:13:17.567Z,11.68
2023-04-17T08:15:44.874Z,11.57
2023-04-17T08:18:11.097Z,11.52
2023-04-17T08:20:37.710Z,11.50
2023-04-17T08:23:04.371Z,11.60
2023-04-17T08:25:31.017Z,11.59
2023-04-17T08:27:57.739Z,11.58
2023-04-17T08:30:24.179Z,11.68
2023-04-17T08:32:51.466Z,11.72
2023-04-17T08:35:18.436Z,11.73
2023-04-17T08:37:47.509Z,11.86
2023-04-17T08:40:16.240Z,11.94
2023-04-17T08:42:42.448Z,12.04
2023-04-17T08:45:11.222Z,12.11
2023-04-17T08:47:41.813Z,12.08
2023-04-17T08:50:19.726Z,12.19
2023-04-17T08:52:48.316Z,12.05
2023-04-17T08:55:17.261Z,11.77
2023-04-17T08:58:05.331Z,11.81
2023-04-17T09:00:43.112Z,11.99
2023-04-17T09:03:13.727Z,12.03
2023-04-17T09:05:42.674Z,11.94
2023-04-17T09:08:15.909Z,11.88
2023-04-17T09:10:43.670Z,12.02
2023-04-17T09:13:13.699Z,12.10
2023-04-17T09:15:41.069Z,11.96
2023-04-17T09:18:24.950Z,12.19
2023-04-17T09:20:51.611Z,12.17
2023-04-17T09:23:18.280Z,12.16
2023-04-17T09:25:45.573Z,12.28
2023-04-17T09:28:13.659Z,12.25
2023-04-17T09:30:41.403Z,12.56
2023-04-17T09:33:08.844Z,12.43
2023-04-17T09:35:40.372Z,12.35
2023-04-17T09:38:06.925Z,12.80
2023-04-17T09:40:41.395Z,12.83
2023-04-17T09:43:10.014Z,12.68
2023-04-17T09:45:40.742Z,12.66
2023-04-17T09:48:14.647Z,13.01
2023-04-17T09:50:41.098Z,13.04
2023-04-17T09:53:07.986Z,12.95
2023-04-17T09:55:37.018Z,12.81
2023-04-17T09:58:06.486Z,12.93
2023-04-17T10:00:32.944Z,13.18
2023-04-17T10:02:59.777Z,13.06
2023-04-17T10:05:29.419Z,13.09
2023-04-17T10:07:56.430Z,13.07
2023-04-17T10:10:25.871Z,12.98
2023-04-17T10:13:07.582Z,13.07
2023-04-17T10:15:38.780Z,13.06
2023-04-17T10:18:26.375Z,13.28
2023-04-17T10:20:54.788Z,13.24
2023-04-17T10:23:31.154Z,13.22
2023-04-17T10:26:24.114Z,13.16
2023-04-17T10:28:52.523Z,13.34
2023-04-17T10:31:19.841Z,13.31
2023-04-17T10:33:50.586Z,13.55
2023-04-17T10:36:38.729Z,13.49
2023-04-17T10:39:17.372Z,13.48
2023-04-17T10:42:17.291Z,13.64
2023-04-17T10:44:45.671Z,13.66
2023-04-17T10:47:16.007Z,13.60
2023-04-17T10:49:57.965Z,13.66
2023-04-17T10:52:44.236Z,13.81
2023-04-17T10:55:17.881Z,13.81
2023-04-17T10:58:02.561Z,13.90
2023-04-17T11:00:30.521Z,14.04
2023-04-17T11:02:57.941Z,14.30
2023-04-17T11:05:24.345Z,14.42
2023-04-17T11:07:50.969Z,14.42
2023-04-17T11:10:22.084Z,14.67
2023-04-17T11:12:50.495Z,14.53
2023-04-17T11:15:16.605Z,14.84
2023-04-17T11:17:47.424Z,15.12
2023-04-17T11:20:16.837Z,15.36
2023-04-17T11:22:44.185Z,15.25
2023-04-17T11:25:27.048Z,15.34
2023-04-17T11:28:02.120Z,15.40
2023-04-17T11:30:30.831Z,14.86
2023-04-17T11:33:02.147Z,14.89
2023-04-17T11:35:31.051Z,14.70
2023-04-17T11:38:19.933Z,14.80
2023-04-17T11:40:56.383Z,14.61
2023-04-17T11:43:22.962Z,15.12
2023-04-17T11:45:51.323Z,15.08
2023-04-17T11:48:23.143Z,15.39
2023-04-17T11:50:53.460Z,15.46
2023-04-17T11:53:20.027Z,14.98
2023-04-17T11:55:46.956Z,14.93
2023-04-17T11:58:13.877Z,14.73
2023-04-17T12:00:40.786Z,14.75
2023-04-17T12:03:32.932Z,15.16
2023-04-17T12:06:04.424Z,15.08
2023-04-17T12:08:40.150Z,14.52
2023-04-17T12:11:06.353Z,14.56
2023-04-17T12:13:34.883Z,14.65
2023-04-17T12:16:01.082Z,14.62
2023-04-17T12:18:27.543Z,14.72
2023-04-17T12:20:53.623Z,14.74
2023-04-17T12:23:22.333Z,14.88
2023-04-17T12:25:48.609Z,15.11
2023-04-17T12:28:15.092Z,15.18
2023-04-17T12:30:41.994Z,15.15
2023-04-17T12:33:09.189Z,15.18
2023-04-17T12:35:35.412Z,15.45
2023-04-17T12:38:01.898Z,15.30
2023-04-17T12:40:28.105Z,15.25
2023-04-17T12:42:55.034Z,15.12
2023-04-17T12:45:21.339Z,15.03
2023-04-17T12:47:47.951Z,15.19
2023-04-17T12:50:14.205Z,14.84
2023-04-17T12:52:41.167Z,14.98
2023-04-17T12:55:08.499Z,14.72
2023-04-17T12:57:35.904Z,14.93
2023-04-17T13:00:05.229Z,14.96
2023-04-17T13:02:31.783Z,15.04
2023-04-17T13:04:58.054Z,15.14
2023-04-17T13:07:24.762Z,14.87
2023-04-17T13:09:50.970Z,14.76
2023-04-17T13:12:17.373Z,14.90
2023-04-17T13:14:43.674Z,14.88
2023-04-17T13:17:10.252Z,15.11
2023-04-17T13:19:38.771Z,14.95
2023-04-17T13:22:06.736Z,15.20
2023-04-17T13:24:34.273Z,15.04
2023-04-17T13:27:00.957Z,15.16
2023-04-17T13:29:27.357Z,15.11
2023-04-17T13:31:54.503Z,14.75
2023-04-17T13:34:21.091Z,14.64
2023-04-17T13:36:47.971Z,14.93
2023-04-17T13:39:14.577Z,14.88
2023-04-17T13:41:41.441Z,15.00
2023-04-17T13:44:07.755Z,15.29
2023-04-17T13:46:34.862Z,15.35
2023-04-17T13:49:01.129Z,15.34
2023-04-17T13:51:27.646Z,14.99
2023-04-17T13:53:58.205Z,14.58
2023-04-17T13:56:26.528Z,14.90
2023-04-17T13:58:55.052Z,15.27
2023-04-17T14:01:21.444Z,15.13
2023-04-17T14:03:47.816Z,15.08
2023-04-17T14:06:17.042Z,14.81
2023-04-17T14:08:44.650Z,14.38
2023-04-17T14:11:12.426Z,14.18
2023-04-17T14:13:39.029Z,14.04
2023-04-17T14:16:05.930Z,14.24
2023-04-17T14:18:32.217Z,14.10
2023-04-17T14:20:58.784Z,14.21
2023-04-17T14:23:24.973Z,14.73
2023-04-17T14:25:51.495Z,14.67
2023-04-17T14:28:18.158Z,15.00
2023-04-17T14:30:44.833Z,15.02
2023-04-17T14:33:11.374Z,15.00
2023-04-17T14:35:39.387Z,15.11
2023-04-17T14:38:06.427Z,14.90
2023-04-17T14:40:33.177Z,14.77
2023-04-17T14:42:59.496Z,14.72
2023-04-17T14:45:25.946Z,14.60
2023-04-17T14:47:52.319Z,14.62
2023-04-17T14:50:19.135Z,14.54
2023-04-17T14:52:45.471Z,14.74
2023-04-17T14:55:12.486Z,14.79
2023-04-17T14:57:39.028Z,14.67
2023-04-17T15:00:07.423Z,14.76
2023-04-17T15:02:37.555Z,14.54
2023-04-17T15:05:07.524Z,14.45
2023-04-17T15:07:33.935Z,14.68
2023-04-17T15:10:01.142Z,14.65
2023-04-17T15:12:28.465Z,14.60
2023-04-17T15:14:55.685Z,14.45
2023-04-17T15:17:22.076Z,14.45
2023-04-17T15:19:48.591Z,14.33
2023-04-17T15:22:14.688Z,14.33
2023-04-17T15:24:41.130Z,14.25
2023-04-17T15:27:10.956Z,14.14
2023-04-17T15:29:38.674Z,14.06
2023-04-17T15:32:05.115Z,14.14
2023-04-17T15:34:33.598Z,14.30
2023-04-17T15:37:00.086Z,14.06
2023-04-17T15:39:26.819Z,14.04
2023-04-17T15:41:55.741Z,14.13
2023-04-17T15:44:22.651Z,13.97
2023-04-17T15:46:49.096Z,13.95
2023-04-17T15:49:15.893Z,13.87
2023-04-17T15:51:42.115Z,13.90
2023-04-17T15:54:11.137Z,13.94
2023-04-17T15:56:38.125Z,14.02
2023-04-17T15:59:04.513Z,14.04
2023-04-17T16:01:30.827Z,13.95
2023-04-17T16:03:57.452Z,14.09
2023-04-17T16:06:23.801Z,13.97
2023-04-17T16:08:50.357Z,13.85
2023-04-17T16:11:16.539Z,13.87
2023-04-17T16:13:42.899Z,13.76
2023-04-17T16:16:10.024Z,13.65
2023-04-17T16:18:37.119Z,13.64
2023-04-17T16:21:03.455Z,13.60
2023-04-17T16:23:29.877Z,13.54
2023-04-17T16:25:56.028Z,13.56
2023-04-17T16:28:23.529Z,13.51
2023-04-17T16:30:49.718Z,13.54
2023-04-17T16:33:16.152Z,13.48
2023-04-17T16:35:42.658Z,13.45
2023-04-17T16:38:09.340Z,13.60
2023-04-17T16:40:35.887Z,13.50
2023-04-17T16:43:02.387Z,13.37
2023-04-17T16:45:28.477Z,13.45
2023-04-17T16:47:55.132Z,13.51
2023-04-17T16:50:22.331Z,13.41
2023-04-17T16:52:49.830Z,13.32
2023-04-17T16:55:16.470Z,13.14
2023-04-17T16:57:44.966Z,13.20
2023-04-17T17:00:12.088Z,13.18
2023-04-17T17:02:39.039Z,13.20
2023-04-17T17:05:07.194Z,13.05
2023-04-17T17:07:33.908Z,13.06
2023-04-17T17:10:01.032Z,13.01
2023-04-17T17:12:27.781Z,13.04
2023-04-17T17:14:54.365Z,13.06
2023-04-17T17:17:21.132Z,13.12
2023-04-17T17:19:48.515Z,13.11
2023-04-17T17:22:17.089Z,12.90
2023-04-17T17:24:46.548Z,12.95
2023-04-17T17:27:14.618Z,12.95
2023-04-17T17:29:40.956Z,12.88
2023-04-17T17:32:08.550Z,12.80
2023-04-17T17:34:35.761Z,12.71
2023-04-17T17:37:05.132Z,12.68
2023-04-17T17:39:31.663Z,12.65
2023-04-17T17:42:00.344Z,12.60
2023-04-17T17:44:26.647Z,12.55
2023-04-17T17:46:53.679Z,12.50
2023-04-17T17:49:20.096Z,12.49
2023-04-17T17:51:46.783Z,12.50
2023-04-17T17:54:13.581Z,12.44
2023-04-17T17:56:40.792Z,12.33
2023-04-17T17:59:07.113Z,12.34
2023-04-17T18:01:34.027Z,12.32
2023-04-17T18:04:00.600Z,12.24
2023-04-17T18:06:28.076Z,12.20
2023-04-17T18:08:54.601Z,12.12
2023-04-17T18:11:22.248Z,12.17
2023-04-17T18:13:48.554Z,12.10
2023-04-17T18:16:18.290Z,12.09
2023-04-17T18:18:44.897Z,12.14
2023-04-17T18:21:12.434Z,12.06
2023-04-17T18:23:38.818Z,12.02
2023-04-17T18:26:05.518Z,11.98
2023-04-17T18:28:32.436Z,11.96
2023-04-17T18:30:59.515Z,11.90
2023-04-17T18:33:25.953Z,11.78
2023-04-17T18:35:52.844Z,11.75
2023-04-17T18:38:19.554Z,12.00
2023-04-17T18:40:46.295Z,12.13
2023-04-17T18:43:12.841Z,11.70
2023-04-17T18:45:39.541Z,11.57
2023-04-17T18:48:05.965Z,11.39
2023-04-17T18:50:32.787Z,11.39
2023-04-17T18:52:59.246Z,11.28
2023-04-17T18:55:26.449Z,11.28
2023-04-17T18:57:52.793Z,11.16
2023-04-17T19:00:19.892Z,11.56
2023-04-17T19:02:47.154Z,11.65
2023-04-17T19:05:14.808Z,11.43
2023-04-17T19:07:41.450Z,11.19
2023-04-17T19:10:08.885Z,11.09
2023-04-17T19:12:35.539Z,11.01
2023-04-17T19:15:02.937Z,10.93
2023-04-17T19:17:29.661Z,10.94
2023-04-17T19:19:56.747Z,10.88
2023-04-17T19:22:23.239Z,10.83
2023-04-17T19:24:52.266Z,10.75
2023-04-17T19:27:19.634Z,10.65
2023-04-17T19:29:46.821Z,10.69
2023-04-17T19:32:15.854Z,10.65
2023-04-17T19:34:43.463Z,10.65
2023-04-17T19:37:12.127Z,10.68
2023-04-17T19:39:39.221Z,10.58
2023-04-17T19:42:05.742Z,10.59
2023-04-17T19:44:32.669Z,10.86
2023-04-17T19:46:59.212Z,10.87
2023-04-17T19:49:26.496Z,11.01
2023-04-17T19:51:53.437Z,11.00
2023-04-17T19:54:20.448Z,11.01
2023-04-17T19:56:50.446Z,11.12
2023-04-17T19:59:17.545Z,11.17
2023-04-17T20:01:44.427Z,11.21
2023-04-17T20:04:11.899Z,11.27
2023-04-17T20:06:40.129Z,11.36
2023-04-17T20:09:06.988Z,11.16
2023-04-17T20:11:33.875Z,10.87
2023-04-17T20:14:00.540Z,10.70
2023-04-17T20:16:26.992Z,10.74
2023-04-17T20:18:55.735Z,10.62
2023-04-17T20:21:22.496Z,10.61
2023-04-17T20:23:49.277Z,10.57
2023-04-17T20:26:15.802Z,10.44
2023-04-17T20:28:42.639Z,10.39
2023-04-17T20:31:10.193Z,10.27
2023-04-17T20:33:37.170Z,10.33
2023-04-17T20:36:11.660Z,10.20
2023-04-17T20:38:41.455Z,10.20
2023-04-17T20:41:09.180Z,10.24
2023-04-17T20:43:35.957Z,10.21
2023-04-17T20:46:02.342Z,10.18
2023-04-17T20:48:29.136Z,10.07
2023-04-17T20:50:56.294Z,10.06
2023-04-17T20:53:22.936Z,10.20
2023-04-17T20:55:50.539Z,10.05
2023-04-17T20:58:17.223Z,10.10
2023-04-17T21:00:54.429Z,10.11
2023-04-17T21:03:29.893Z,10.12
2023-04-17T21:05:56.716Z,10.12
2023-04-17T21:08:24.144Z,10.11
2023-04-17T21:10:50.815Z,10.11
2023-04-17T21:13:17.321Z,10.06
2023-04-17T21:15:44.010Z,10.22
2023-04-17T21:18:10.940Z,10.21
2023-04-17T21:20:39.267Z,10.26
2023-04-17T21:23:06.139Z,10.21
2023-04-17T21:25:32.624Z,10.12
2023-04-17T21:27:59.188Z,10.13
2023-04-17T21:30:27.325Z,10.23
2023-04-17T21:32:54.301Z,10.03
2023-04-17T21:35:20.645Z,10.11
2023-04-17T21:37:50.168Z,10.08
2023-04-17T21:40:16.521Z,10.08
2023-04-17T21:42:44.078Z,10.04
2023-04-17T21:45:13.869Z,9.99
2023-04-17T21:50:24.702Z,9.92
2023-04-17T21:52:51.004Z,9.96
2023-04-17T21:55:17.126Z,10.06
2023-04-17T21:57:44.094Z,9.95
2023-04-17T22:00:12.038Z,9.97
2023-04-17T22:02:38.689Z,9.93
2023-04-17T22:05:05.637Z,9.92
2023-04-17T22:07:38.105Z,9.94
2023-04-17T22:10:13.117Z,9.84
2023-04-17T22:12:39.780Z,9.75
2023-04-17T22:15:06.983Z,9.78
2023-04-17T22:17:33.617Z,9.76
2023-04-17T22:20:00.261Z,9.76
2023-04-17T22:22:26.664Z,9.73
2023-04-17T22:24:52.829Z,10.16
2023-04-17T22:27:19.350Z,10.03
2023-04-17T22:29:45.457Z,9.99
2023-04-17T22:32:11.835Z,9.98
2023-04-17T22:34:38.674Z,9.93
2023-04-17T22:37:05.960Z,9.98
2023-04-17T22:39:32.006Z,9.93
2023-04-17T22:41:58.413Z,10.00
2023-04-17T22:44:24.529Z,10.01
2023-04-17T22:46:50.869Z,10.11
2023-04-17T22:49:18.909Z,10.36
2023-04-17T22:51:46.392Z,10.09
2023-04-17T22:54:22.060Z,10.09
2023-04-17T22:56:49.941Z,10.15
2023-04-17T22:59:16.059Z,10.21
2023-04-17T23:01:42.524Z,10.10
2023-04-17T23:08:09.154Z,10.12
2023-04-17T23:10:35.331Z,10.14
2023-04-17T23:13:01.792Z,10.08
2023-04-17T23:15:28.038Z,10.17
2023-04-17T23:17:54.630Z,10.26
2023-04-17T23:20:21.827Z,10.16
2023-04-17T23:22:48.422Z,10.23
2023-04-17T23:25:14.648Z,10.09
2023-04-17T23:27:41.215Z,10.08
2023-04-17T23:30:07.840Z,10.08
2023-04-17T23:32:34.408Z,10.10
2023-04-17T23:35:00.588Z,10.10
2023-04-17T23:37:27.036Z,10.14
2023-04-17T23:39:53.143Z,10.07
2023-04-17T23:42:19.723Z,10.15
2023-04-17T23:44:45.794Z,10.15
2023-04-17T23:47:12.348Z,10.15
2023-04-17T23:49:38.366Z,10.06
2023-04-17T23:52:04.845Z,10.11
2023-04-17T23:54:31.026Z,9.91
2023-04-17T23:56:57.475Z,9.95
2023-04-17T23:59:23.502Z,9.99
